x

New York Harbor Entrance - 15 Nm Se Of Breezy Point , Ny (44065) Wave Buoy

2:50pm - Sun 21st Dec 2014 All times are EST. -5 hours from GMT.

  • Sig Wave height 1.3ft
  • Swell Direction
  • Peak Period 10s
  • Average Period 4s
  • Wind
    11mph, 13mph gusts
  • Sea Temp 45°f
  • Air Temp 36°f
  • Sea Pressure 1025.9mb
  • New York Harbor Entrance - 15 Nm Se Of Breezy Point , Ny
  • New York Harbor Entrance - 15 Nm Se Of Breezy Point , Ny

More Historic Weather Station data

Upgrade to MSW Pro to gain access to the past 30 days of data for over 8000 Wavebouys and Weather Stations around the globe.

Join Pro

Comparision Forecast

View Surf forecast
   
Sun 12/21 2:50pm 1.3ft 10s 4s 11 13 mph 1025.9mb 45f 36f
1:50pm 1.3ft 10s 4s 13 16 mph 1025.7mb 45f 36f
12:50pm 1ft 10s 4s 11 16 mph 1026mb 45f 35f
11:50am 1ft 11s 6s 11 16 mph 1026.1mb 45f 35f
10:50am 1ft 11s 5s 7 11 mph 1026.8mb 45f 35f
9:50am 1ft 11s 5s 7 9 mph 1026.9mb 47f 35f
8:50am 1ft 10s 5s 4 9 mph 1026.5mb 47f 35f
7:50am 1.3ft 11s 4s 9 11 mph 1026.1mb 48f 35f
6:50am 1.3ft 11s 4s 11 16 mph 1025.9mb 48f 35f
5:50am 1.3ft 10s 4s 9 13 mph 1025.5mb 47f 35f
4:50am 1ft 10s 4s 11 16 mph 1025.1mb 47f 35f
3:50am 1ft 11s 6s 11 13 mph 1025.2mb 46f 35f
2:50am 0.7ft  -  6s 7 11 mph 1025.5mb 46f 35f
1:50am 1ft 10s 6s 7 9 mph 1025.6mb 45f 35f
12:50am 0.7ft  -  6s 7 9 mph 1025.6mb 45f 35f
Sat 12/20 11:50pm 0.7ft  -  7s 2 4 mph 1025.9mb 45f 35f
10:50pm 0.7ft  -  6s 2 4 mph 1026mb 45f 35f
9:50pm 0.7ft  -  6s 4 7 mph 1026.2mb 46f 35f
8:50pm 1ft 10s 7s 4 7 mph 1026mb 46f 35f
7:50pm 1ft 11s 6s 4 9 mph 1025.8mb 46f 34f
6:50pm 0.7ft  -  5s 7 9 mph 1025.9mb 46f 34f
5:50pm 1ft 10s 4s 11 13 mph 1025.7mb 46f 34f
4:50pm 1ft 10s 4s 13 18 mph 1024.9mb 46f 34f
3:50pm 1ft 11s 3s 11 16 mph 1025.1mb 46f 33f
2:50pm 1ft 9s 4s 11 13 mph 1025mb 46f 33f
1:50pm 1ft 11s 3s 7 11 mph 1025.3mb 46f 33f
12:50pm 1ft 11s 3s 9 13 mph 1025mb 46f 33f
11:50am 1ft 11s 4s 9 13 mph 1026.1mb 46f 33f
10:50am 1ft 11s 4s 9 13 mph 1026.2mb 46f 33f
9:50am 1ft 12s 3s 9 11 mph 1026.5mb 46f 33f
8:50am 1ft 3s 3s 11 16 mph 1025.7mb 46f 33f
7:50am 1ft 3s 3s 11 16 mph 1025mb 46f 33f
6:50am 1.3ft 3s 3s 13 16 mph 1024.8mb 47f 33f
5:50am 1ft 2s 3s 13 18 mph 1024.4mb 46f 33f
4:50am 1.3ft 3s 3s 11 16 mph 1023.8mb 46f 33f
3:50am 1.6ft 3s 3s 18 22 mph 1023mb 46f 33f
2:50am 1.3ft 3s 3s 13 18 mph 1022.8mb 46f 34f
1:50am 1.3ft 3s 3s 11 16 mph 1022.6mb 46f 34f
12:50am 1.3ft 3s 3s 16 18 mph 1022.4mb 47f 34f
Fri 12/19 11:50pm 1.3ft 3s 3s 13 18 mph 1022.6mb 46f 35f
10:50pm 1.6ft 4s 3s 13 18 mph 1022.2mb 46f 35f
9:50pm 2ft 4s 3s 13 18 mph 1021.8mb 46f 35f
8:50pm 2.5ft 4s 3s 18 22 mph 1020.7mb 46f 35f
7:50pm 2.5ft 4s 3s 20 25 mph 1020.8mb 46f 35f
6:50pm 2.5ft 4s 3s 18 25 mph 1020.8mb 47f 36f
5:50pm 2.5ft 4s 3s 22 27 mph 1019.4mb 47f 36f
4:50pm 2.5ft 4s 3s 22 29 mph 1018.3mb 47f 37f
3:50pm 2.5ft 4s 3s 22 27 mph 1017.8mb 47f 38f
2:50pm 2.5ft 4s 3s 20 25 mph 1017.2mb 47f 38f
1:50pm 2.5ft 4s 3s 20 25 mph 1016.9mb 47f 38f
12:50pm 2.5ft 4s 3s 20 25 mph 1017.1mb 47f 37f
11:50am 2.5ft 4s 3s 20 25 mph 1017.2mb 47f 37f
10:50am 2.5ft 3s 3s 20 27 mph 1017.5mb 47f 37f
9:50am 2ft 3s 3s 22 25 mph 1017.6mb 47f 38f
8:50am 2.5ft 3s 3s 18 22 mph 1017mb 47f 39f
7:50am 2ft 4s 3s 18 25 mph 1016.4mb 47f 39f
6:50am 2.5ft 4s 3s 20 27 mph 1015.7mb 47f 39f
5:50am 2.5ft 4s 3s 20 22 mph 1015.3mb 47f 39f
4:50am 2.5ft 4s 3s 20 25 mph 1015.1mb 47f 39f
3:50am 2.5ft 4s 3s 22 27 mph 1014.9mb 47f 40f
2:50am 2.5ft 4s 3s 20 27 mph 1015mb 47f 40f
1:50am 2.5ft 4s 3s 20 25 mph 1014.7mb 47f 40f
12:50am 2.5ft 3s 3s 20 25 mph 1014.9mb 47f 40f
Thu 12/18 11:50pm 2ft 3s 3s 20 25 mph 1015mb 47f 40f
10:50pm 2.5ft 3s 3s 16 20 mph 1015.4mb 47f 40f
9:50pm 2.5ft 4s 3s 20 25 mph 1015.3mb 47f 40f
8:50pm 3ft 4s 4s 22 27 mph 1014.7mb 47f 40f
7:50pm 3.5ft 4s 4s 22 29 mph 1014.9mb 47f 41f
6:50pm 3.5ft 4s 4s 25 29 mph 1014.2mb 47f 41f
5:50pm 3.5ft 4s 4s 25 31 mph 1014.2mb 47f 41f
4:50pm 3.5ft 4s 4s 29 34 mph 1013.6mb 47f 42f
3:50pm 2.5ft 4s 4s 25 31 mph 1013.9mb 47f 42f
2:50pm 3ft 4s 4s 25 29 mph 1013.6mb 47f 41f
1:50pm 3ft 4s 4s 25 29 mph 1013.9mb 47f 41f
12:50pm 3ft 4s 4s 25 29 mph 1014.3mb 47f 41f
11:50am 3ft 4s 4s 25 29 mph 1015mb 47f 40f
10:50am 3.5ft 4s 4s 22 29 mph 1015.7mb 47f 40f
9:50am 3ft 3s 4s 25 31 mph 1016mb 47f 40f
8:50am 3ft 4s 4s 22 27 mph 1015.3mb 47f 39f
7:50am 3ft 4s 4s 25 29 mph 1014.6mb 46f 39f
6:50am 3.5ft 4s 4s 25 29 mph 1014.5mb 46f 40f
5:50am 3.5ft 4s 4s 27 34 mph 1013.3mb 46f 40f
4:50am 3.5ft 5s 4s 27 34 mph 1012.9mb 46f 41f
3:50am 4ft 4s 4s 27 34 mph 1012.6mb 46f 41f
2:50am 4ft 4s 4s 29 36 mph 1012.3mb 46f 41f
1:50am 4ft 4s 4s 29 34 mph 1012mb 46f 40f
12:50am 3.5ft 4s 4s 27 31 mph 1011.5mb 46f 41f
Wed 12/17 11:50pm 3.5ft 4s 4s 27 29 mph 1011.9mb 46f 42f
10:50pm 3ft 4s 4s 25 31 mph 1012.5mb 46f 44f
9:50pm 3ft 4s 4s 25 29 mph 1012.5mb 46f 44f
8:50pm 3.5ft 4s 4s 22 27 mph 1012.5mb 46f 45f